Strona główna
METAR-TAF:

METAR-TAF

Lotnisko :

Port lotniczy Kinszasa

Kinszasa, Kongo

Szerokość geograficzna: 04-23S, Długość geograficzna: 015-26E, wysokość: 309 m

Aktualna obserwacja pogody

Raport powstał 31 minut temu, godzina 19:00 UTC
Wiatr 6 kt od południowy zachód
Temperatura 26°C
Wilgotność 58%
Ciśnienie 1014 hPa
Widzialność: 6000 m

METAR: FZAA 201900Z 23006KT 6000 NSC 26/17 Q1014 NOSIG

czas: 20:31 (19:31 UTC)

Prognoza

Raport powstał 2 godziny i 31 minut temu, godzina 17:00 UTC
Prognoza ważna od 20 godzina 18 UTC do 21 godzina 24 UTC
Wiatr 8 kt od zachód
Widzialność: 6000 m
Mało chmury na wysokości 1800 ft
Przejściowo
od 21 godzina 03 UTC do 21 godzina 07 UTC
Widzialność: 4000 m
Przerywane chmury na wysokości 1400 ft
zamglenie,

TAF: FZAA 201700Z 2018/2124 26008KT 6000 FEW018 TEMPO 2103/2107 4000 BR BKN014

Obserwacja i prognoza pogody dla ponad 4000 lotnisk (raport METAR i TAF).

Dostępne stacje oznaczono żółtymi i czerwonymi punktami na mapie.

Najedź kursorem aby zobaczyć nazwę stacji.

Kliknij aby zobaczyć obserwacje i prognozy pogody.

Aby zmienić mapę: kliknij na zielony przycisk z czarnym krzyżykiem, aby powiększyć; na zielony przycisk z myślnikiem, aby pomniejszyć; na zielone strzałki, aby przejść do map sąsiednich.


METAR-TAF: